Airfield :
LOGIN :

Register | Disclaimer

   EN    FR    IT 

 










Legend :    VFR   Marginal VFR   IFR   Intensive IFR   Very Intensive IFR
Visi :
Ceiling :
>= 8 km
>= 3000ft
5 to 8 km
1000 to 3000 ft
1500m to 5 km
500 to 1000 ft
800 to 1500m
200 to 500 ft
< 800m
< 200 ft
Symbols :   Thunderstorms  Fog  Heavy snow  Heavy precipitations  Wind > 20 kt
SIGMETs :     Misc.  Thunderstorms  Icing  Turbulence  Mountain Waves  Volcanic Ashes






- Airport Elevation : 312 ft
- IATA code : SAW


LTFJ - Sabiha Gokcen

CURRENT METAR :
  • 070950Z 25007KT 220V290 CAVOK 27/11 Q1008 NOSIG RMK RWY24 25009KT

EXPIRED METARs :
  • 070920Z 23005KT 170V300 CAVOK 26/13 Q1008 NOSIG RMK RWY24 24006KT 200V280
  • 070850Z 22007KT 180V250 CAVOK 25/15 Q1009 NOSIG RMK RWY24 22008KT
  • 070820Z 23006KT 190V260 CAVOK 25/14 Q1009 NOSIG RMK RWY24 23007KT 190V260
  • 070750Z 24008KT 210V280 CAVOK 24/14 Q1009 NOSIG RMK RWY24 23009KT
  • 070720Z 24008KT 210V280 CAVOK 24/15 Q1009 NOSIG RMK RWY24 24009KT

TAF TAF LTFJ
Valid from the 07 at 06:00 until the 08 at 06:00 UTC


070440Z 0706/0806 24012KT CAVOK
BECMG 0713/0716 VRB02KT



MET'MAP, your aeronautical weather chart ! - Copyright ORBIFLY December 2007 - Disclaimer

ORBIFLY MET'MAP TEAM :

Programming & Development : Alexandra Zaïnal
Concept & original design : Baudouin d'Aumeries
Assistance for programming : Marc-Olivier Méhu
Technical & hardware support : Manuel Goepfert

Contact : metmap@orbifly.com




SOURCES & CREDITS :

   NOAA